Newark Liberty International Airport
KEWR : now visible

Airfield :











YOU CAN JOIN US ON...

 
LOGIN :

Register | Disclaimer

   EN    FR    IT 

 









Legend :    VFR   Marginal VFR   IFR   Intensive IFR   Very Intensive IFR
Visi :
Ceiling :
>= 8 km
>= 3000ft
5 to 8 km
1000 to 3000 ft
1500m to 5 km
500 to 1000 ft
800 to 1500m
200 to 500 ft
< 800m
< 200 ft
Symbols :   Thunderstorms  Fog  Heavy snow  Heavy precipitations  Wind > 20 kt







- Airport Elevation : 18 ft
- IATA code : EWR


KEWR - Newark Liberty International

CURRENT METAR :
  • 260708Z 23011KT 10SM FEW016 BKN022 OVC030 17/13 A2996 RMK AO2 T01720133

EXPIRED METARs :
  • 260651Z 23008KT 10SM SCT016 OVC034 17/13 A2997 RMK AO2 SLP147 T01720133
  • 260551Z 20009KT 10SM FEW019 SCT045 BKN100 OVC140 16/13 A3000 RMK AO2 RAB17E50 SLP158 P0000 60000 T01610128 10183 20161 58026
  • 260535Z 19010KT 10SM -RA SCT022 BKN050 OVC100 17/12 A3000 RMK AO2 RAB17 P0000 T01670122
  • 260451Z 19007KT 10SM BKN020 BKN046 OVC070 17/12 A3003 RMK AO2 SLP168 T01720117 402110139

TAF KEWR
Valid from the 26 at 06:00 until the 27 at 12:00 UTC


260521Z 2606/2712 20009KT P6SM VCSH BKN020 BKN040
FM260800 22006KT P6SM BKN015 OVC040
FM261300 27009KT P6SM SCT015 SCT050
FM261600 29013G20KT P6SM FEW050 SCT250
FM262300 30011KT P6SM SCT060 BKN200
FM270200 34008KT P6SM SCT060 BKN150
FM270600 36006KT P6SM SCT060 BKN150
KZNY FIR / North America



MET'MAP, your aeronautical weather chart ! - Copyright ORBIFLY December 2007 - Disclaimer

ORBIFLY MET'MAP TEAM :

Programming & Development : Alexandra Zaïnal
Concept & Development : Baudouin d'Aumeries
Co-Development & Prog : Marc-Olivier Méhu
Technical & hardware support : Manuel Goepfert

Contact : metmap@orbifly.com




SOURCES & CREDITS :

   NOAA       Earth
Advisory